Time;durP1;ratioP1;P1;durP2;ratioP2;P2;SDS_P1;SDS_P2;PMS_P1;PMS_P2;Temp;Humidity;BMP_temperature;BMP_pressure;BME280_temperature;BME280_humidity;BME280_pressure;Samples;Min_cycle;Max_cycle;Signal;HPM_P1;HPM_P2
2022/01/13 00:02:07;;;;;;;42.80;14.55;;;;;;;;;;5010763;28;20486;-69
2022/01/13 00:04:32;;;;;;;36.17;14.25;;;;;;;;;;5012040;28;20438;-69
2022/01/13 00:06:58;;;;;;;40.70;15.93;;;;;;;;;;5010921;28;20408;-70
2022/01/13 00:09:23;;;;;;;35.28;14.20;;;;;;;;;;5008941;28;20384;-69
2022/01/13 00:11:50;;;;;;;47.75;16.20;;;;;;;;;;5011790;28;20339;-70
2022/01/13 00:19:35;;;;;;;35.13;14.73;;;;;;;;;;4994827;28;20379;-70
2022/01/13 00:24:52;;;;;;;34.38;15.75;;;;;;;;;;4969851;28;20064;-69
2022/01/13 00:27:18;;;;;;;37.15;15.25;;;;;;;;;;5010254;28;20367;-70
2022/01/13 00:29:45;;;;;;;39.05;14.25;;;;;;;;;;5009076;28;20424;-69
2022/01/13 00:32:13;;;;;;;41.38;14.82;;;;;;;;;;5012408;28;20435;-70
2022/01/13 00:34:38;;;;;;;38.60;14.15;;;;;;;;;;4993138;28;20411;-70
2022/01/13 00:37:04;;;;;;;33.92;13.77;;;;;;;;;;5009033;28;20408;-69
2022/01/13 00:39:29;;;;;;;40.38;16.15;;;;;;;;;;5009561;28;20431;-71
2022/01/13 00:41:54;;;;;;;34.50;15.43;;;;;;;;;;4992556;28;20428;-70
2022/01/13 00:44:21;;;;;;;37.63;14.75;;;;;;;;;;5010285;28;20391;-69
2022/01/13 00:46:56;;;;;;;38.30;15.77;;;;;;;;;;5010534;28;20459;-69
2022/01/13 00:49:22;;;;;;;28.45;12.65;;;;;;;;;;5009625;28;20347;-69
2022/01/13 00:51:47;;;;;;;40.40;14.52;;;;;;;;;;5010008;28;20029;-70
2022/01/13 00:54:13;;;;;;;34.35;14.95;;;;;;;;;;4992658;28;20363;-70
2022/01/13 00:56:39;;;;;;;40.80;14.25;;;;;;;;;;5008483;28;20601;-69
2022/01/13 00:59:07;;;;;;;39.95;15.32;;;;;;;;;;5011116;28;20335;-69
2022/01/13 01:01:38;;;;;;;41.67;15.48;;;;;;;;;;4987627;28;20353;-69
2022/01/13 01:04:04;;;;;;;38.55;15.10;;;;;;;;;;4968669;28;20432;-70
2022/01/13 01:06:30;;;;;;;34.83;16.88;;;;;;;;;;4972466;28;20083;-69
2022/01/13 01:08:55;;;;;;;36.70;15.65;;;;;;;;;;4972258;28;20510;-69
2022/01/13 01:11:21;;;;;;;37.55;15.00;;;;;;;;;;4988541;28;20029;-70
2022/01/13 01:13:49;;;;;;;44.28;15.25;;;;;;;;;;4990196;28;20103;-69
2022/01/13 01:16:17;;;;;;;39.25;16.73;;;;;;;;;;4990692;28;20452;-71
2022/01/13 01:24:08;;;;;;;39.92;16.58;;;;;;;;;;4989736;28;20051;-70
2022/01/13 01:26:46;;;;;;;35.22;15.45;;;;;;;;;;4990028;28;20428;-70
2022/01/13 01:29:28;;;;;;;37.17;15.63;;;;;;;;;;4974551;28;20423;-71
2022/01/13 01:31:56;;;;;;;40.95;15.35;;;;;;;;;;4989486;28;20518;-70
2022/01/13 01:34:53;;;;;;;39.35;14.75;;;;;;;;;;4991911;28;20482;-69
2022/01/13 01:37:19;;;;;;;40.65;16.60;;;;;;;;;;4989847;28;20352;-70
2022/01/13 01:39:47;;;;;;;36.75;16.35;;;;;;;;;;4989296;28;20387;-69
2022/01/13 01:42:14;;;;;;;39.60;15.75;;;;;;;;;;4971806;28;20384;-69
2022/01/13 01:44:43;;;;;;;43.60;16.92;;;;;;;;;;4989318;28;20416;-70
2022/01/13 01:47:10;;;;;;;;;;;;;;;;;;4988600;28;20383;-70
2022/01/13 01:49:40;;;;;;;39.63;13.82;;;;;;;;;;4971821;28;19913;-70
2022/01/13 01:52:06;;;;;;;40.70;15.13;;;;;;;;;;4989741;28;20383;-71
2022/01/13 01:54:31;;;;;;;38.15;16.13;;;;;;;;;;4989790;28;20071;-70
2022/01/13 01:56:57;;;;;;;38.05;14.88;;;;;;;;;;4971756;28;20372;-70
2022/01/13 01:59:26;;;;;;;36.22;15.20;;;;;;;;;;4989727;28;20455;-70
2022/01/13 02:01:52;;;;;;;35.28;16.35;;;;;;;;;;4971485;28;20318;-70
2022/01/13 02:04:18;;;;;;;40.55;14.25;;;;;;;;;;4971592;28;20364;-70
2022/01/13 02:06:44;;;;;;;41.55;17.67;;;;;;;;;;4971820;28;20367;-69
2022/01/13 02:09:11;;;;;;;43.00;15.95;;;;;;;;;;4971995;28;20507;-70
2022/01/13 02:11:50;;;;;;;38.28;15.70;;;;;;;;;;4971234;28;20420;-70
2022/01/13 02:14:48;;;;;;;38.10;15.48;;;;;;;;;;4973071;28;20060;-70
2022/01/13 02:17:11;;;;;;;45.58;17.00;;;;;;;;;;4990193;28;20438;-70
2022/01/13 02:19:39;;;;;;;37.20;15.25;;;;;;;;;;4971956;28;20428;-70
2022/01/13 02:22:04;;;;;;;40.67;17.35;;;;;;;;;;4989162;28;20476;-70
2022/01/13 02:24:30;;;;;;;31.67;14.70;;;;;;;;;;4989015;28;20090;-70
2022/01/13 02:26:56;;;;;;;44.25;16.52;;;;;;;;;;4971373;28;20884;-69
2022/01/13 02:29:21;;;;;;;45.90;16.70;;;;;;;;;;4988932;28;20109;-69
2022/01/13 02:31:47;;;;;;;50.30;20.08;;;;;;;;;;4990624;28;20450;-69
2022/01/13 02:34:12;;;;;;;40.80;16.00;;;;;;;;;;4975293;28;20422;-70
2022/01/13 02:36:40;;;;;;;33.63;15.90;;;;;;;;;;4991294;28;20394;-70
2022/01/13 02:39:06;;;;;;;47.37;16.47;;;;;;;;;;4976394;28;20348;-70
2022/01/13 02:41:32;;;;;;;43.85;17.65;;;;;;;;;;4993605;28;20645;-70
2022/01/13 02:44:00;;;;;;;41.22;15.88;;;;;;;;;;4992027;28;20436;-70
2022/01/13 02:49:04;;;;;;;44.72;16.67;;;;;;;;;;4992935;28;20421;-70
2022/01/13 02:51:29;;;;;;;35.30;15.65;;;;;;;;;;4975194;28;20470;-70
2022/01/13 02:53:55;;;;;;;36.88;16.25;;;;;;;;;;4975082;28;20392;-69
2022/01/13 02:56:20;;;;;;;47.00;16.52;;;;;;;;;;4974575;28;20370;-70
2022/01/13 02:58:46;;;;;;;39.03;15.85;;;;;;;;;;4993021;28;20416;-70
2022/01/13 03:01:12;;;;;;;38.38;15.15;;;;;;;;;;4992512;28;20467;-70
2022/01/13 03:03:39;;;;;;;48.47;17.83;;;;;;;;;;4974428;28;20020;-70
2022/01/13 03:06:06;;;;;;;43.17;16.73;;;;;;;;;;4991442;28;20025;-70
2022/01/13 03:08:31;;;;;;;38.47;15.02;;;;;;;;;;4992278;28;20451;-70
2022/01/13 03:10:56;;;;;;;41.75;15.90;;;;;;;;;;4990718;28;20436;-70
2022/01/13 03:13:24;;;;;;;39.63;14.75;;;;;;;;;;4993696;28;20312;-70
2022/01/13 03:15:49;;;;;;;43.63;15.60;;;;;;;;;;4992351;28;20302;-70
2022/01/13 03:18:14;;;;;;;40.65;16.30;;;;;;;;;;4990725;28;20051;-71
2022/01/13 03:20:40;;;;;;;37.80;14.50;;;;;;;;;;4992323;28;20560;-70
2022/01/13 03:23:06;;;;;;;40.70;16.08;;;;;;;;;;4974811;28;20506;-70
2022/01/13 03:25:31;;;;;;;45.83;17.33;;;;;;;;;;4990731;28;20345;-70
2022/01/13 03:28:04;;;;;;;35.25;15.85;;;;;;;;;;4990832;28;20439;-70
2022/01/13 03:30:29;;;;;;;43.78;17.23;;;;;;;;;;4991844;28;20451;-70
2022/01/13 03:32:55;;;;;;;42.25;15.70;;;;;;;;;;4993462;28;20494;-70
2022/01/13 03:35:20;;;;;;;47.42;16.05;;;;;;;;;;4991872;28;20336;-70
2022/01/13 03:37:45;;;;;;;42.97;14.13;;;;;;;;;;4992481;28;20459;-70
2022/01/13 03:40:11;;;;;;;36.90;14.80;;;;;;;;;;4973904;28;20443;-70
2022/01/13 03:42:37;;;;;;;40.83;15.48;;;;;;;;;;4974070;28;20450;-70
2022/01/13 03:45:02;;;;;;;39.60;16.10;;;;;;;;;;4991875;28;20360;-69
2022/01/13 03:47:27;;;;;;;40.92;16.15;;;;;;;;;;4992821;28;20103;-70
2022/01/13 03:49:54;;;;;;;42.13;16.45;;;;;;;;;;4992423;28;20459;-70
2022/01/13 03:52:22;;;;;;;35.60;14.65;;;;;;;;;;4991330;28;20112;-70
2022/01/13 03:55:25;;;;;;;44.78;17.48;;;;;;;;;;4991390;28;20391;-70
2022/01/13 03:58:28;;;;;;;46.78;15.32;;;;;;;;;;4991556;28;20359;-70
2022/01/13 04:01:15;;;;;;;43.17;17.30;;;;;;;;;;4953260;28;20078;-70
2022/01/13 04:03:41;;;;;;;36.72;15.80;;;;;;;;;;4991367;28;20386;-69
2022/01/13 04:06:16;;;;;;;38.20;16.13;;;;;;;;;;4973353;28;20052;-71
2022/01/13 04:08:41;;;;;;;34.40;15.35;;;;;;;;;;4991768;28;20317;-70
2022/01/13 04:11:06;;;;;;;36.17;14.23;;;;;;;;;;4991815;28;20382;-70
2022/01/13 04:13:50;;;;;;;44.97;16.45;;;;;;;;;;4990945;28;20337;-70
2022/01/13 04:16:18;;;;;;;45.95;15.82;;;;;;;;;;4991217;28;20043;-70
2022/01/13 04:18:46;;;;;;;41.45;16.52;;;;;;;;;;4972953;28;20424;-70
2022/01/13 04:21:11;;;;;;;39.50;15.77;;;;;;;;;;4973464;28;20415;-70
2022/01/13 04:23:37;;;;;;;34.83;15.60;;;;;;;;;;4989307;28;20422;-70
2022/01/13 04:26:05;;;;;;;39.85;15.27;;;;;;;;;;4991386;28;20491;-70
2022/01/13 04:28:32;;;;;;;38.25;14.52;;;;;;;;;;4991261;28;20348;-70
2022/01/13 04:31:03;;;;;;;37.83;15.90;;;;;;;;;;4991049;28;20549;-70
2022/01/13 04:33:30;;;;;;;40.40;16.25;;;;;;;;;;4989821;28;20519;-70
2022/01/13 04:35:55;;;;;;;43.17;16.88;;;;;;;;;;4972846;28;20418;-70
2022/01/13 04:38:21;;;;;;;39.13;16.02;;;;;;;;;;4990781;28;20547;-70
2022/01/13 04:40:49;;;;;;;37.03;14.70;;;;;;;;;;4990624;28;20435;-70
2022/01/13 04:43:14;;;;;;;41.72;16.92;;;;;;;;;;4991466;28;20377;-70
2022/01/13 04:45:40;;;;;;;38.13;14.90;;;;;;;;;;4973211;28;20039;-70
2022/01/13 04:48:06;;;;;;;39.05;14.57;;;;;;;;;;4990567;28;20055;-70
2022/01/13 04:50:31;;;;;;;36.83;16.02;;;;;;;;;;4972443;28;20446;-70
2022/01/13 04:52:57;;;;;;;30.55;13.52;;;;;;;;;;4990288;28;20052;-70
2022/01/13 04:55:25;;;;;;;32.75;13.73;;;;;;;;;;4989649;28;20429;-70
2022/01/13 04:57:52;;;;;;;37.53;13.05;;;;;;;;;;4990259;28;20190;-70
2022/01/13 05:00:17;;;;;;;30.92;13.07;;;;;;;;;;4972620;28;20480;-70
2022/01/13 05:02:43;;;;;;;35.38;14.98;;;;;;;;;;4989769;28;20547;-70
2022/01/13 05:05:09;;;;;;;41.85;14.35;;;;;;;;;;4988920;28;20344;-70
2022/01/13 05:07:34;;;;;;;34.78;12.93;;;;;;;;;;4990007;28;20321;-70
2022/01/13 05:10:00;;;;;;;33.28;13.82;;;;;;;;;;4972532;28;20396;-70
2022/01/13 05:12:32;;;;;;;42.78;14.32;;;;;;;;;;4990359;28;20403;-70
2022/01/13 05:15:01;;;;;;;37.63;14.93;;;;;;;;;;4989126;28;20340;-70
2022/01/13 05:17:48;;;;;;;32.60;12.90;;;;;;;;;;4972346;28;20060;-71
2022/01/13 05:20:18;;;;;;;26.90;12.20;;;;;;;;;;4989952;28;20455;-70
2022/01/13 05:22:44;;;;;;;34.70;13.05;;;;;;;;;;4990280;28;20033;-70
2022/01/13 05:25:09;;;;;;;31.88;13.95;;;;;;;;;;4971800;28;20056;-71
2022/01/13 05:27:35;;;;;;;26.73;12.80;;;;;;;;;;4972239;28;20394;-70
2022/01/13 05:30:02;;;;;;;31.42;12.02;;;;;;;;;;4971372;28;20507;-70
2022/01/13 05:32:28;;;;;;;27.65;11.57;;;;;;;;;;4990465;28;20344;-70
2022/01/13 05:34:53;;;;;;;34.90;13.13;;;;;;;;;;4989603;28;20048;-70
2022/01/13 05:37:18;;;;;;;33.67;13.32;;;;;;;;;;4988469;28;20293;-70
2022/01/13 05:39:44;;;;;;;29.60;11.98;;;;;;;;;;4989957;28;20448;-71
2022/01/13 05:42:09;;;;;;;30.67;13.02;;;;;;;;;;4988609;28;20086;-70
2022/01/13 05:44:38;;;;;;;29.23;12.25;;;;;;;;;;4972459;28;20377;-70
2022/01/13 05:47:05;;;;;;;29.15;12.25;;;;;;;;;;4989952;28;20410;-70
2022/01/13 05:49:30;;;;;;;27.30;12.52;;;;;;;;;;4971931;28;20298;-70
2022/01/13 05:51:55;;;;;;;33.85;13.07;;;;;;;;;;4989366;28;20336;-70
2022/01/13 05:54:21;;;;;;;29.02;11.77;;;;;;;;;;4989084;28;20301;-71
2022/01/13 05:56:46;;;;;;;27.23;12.20;;;;;;;;;;4987946;28;20524;-70
2022/01/13 05:59:11;;;;;;;21.25;11.10;;;;;;;;;;4987703;28;20339;-70
2022/01/13 06:01:37;;;;;;;30.23;11.95;;;;;;;;;;4988781;28;20456;-70
2022/01/13 06:04:02;;;;;;;28.17;10.23;;;;;;;;;;4988159;28;20377;-70
2022/01/13 06:06:27;;;;;;;28.48;10.95;;;;;;;;;;4986810;28;20041;-70
2022/01/13 06:08:53;;;;;;;23.83;9.90;;;;;;;;;;4971371;28;20420;-70
2022/01/13 06:11:22;;;;;;;26.42;10.70;;;;;;;;;;4989582;28;20474;-71
2022/01/13 06:13:47;;;;;;;;;;;;;;;;;;4989812;28;20455;-70
2022/01/13 06:16:12;;;;;;;26.45;9.70;;;;;;;;;;4971207;28;20312;-71
2022/01/13 06:18:38;;;;;;;27.52;11.00;;;;;;;;;;4990355;28;20348;-70
2022/01/13 06:21:03;;;;;;;24.50;9.73;;;;;;;;;;4989248;28;20333;-71
2022/01/13 06:23:28;;;;;;;23.63;9.82;;;;;;;;;;4989638;28;20424;-70
2022/01/13 06:25:54;;;;;;;30.45;10.77;;;;;;;;;;4954861;28;20352;-71
2022/01/13 06:28:19;;;;;;;26.65;10.93;;;;;;;;;;4987557;28;20431;-71
2022/01/13 06:30:44;;;;;;;24.02;10.60;;;;;;;;;;4988876;28;20564;-70
2022/01/13 06:33:10;;;;;;;24.30;10.43;;;;;;;;;;4988943;28;20116;-71
2022/01/13 06:35:36;;;;;;;23.38;10.88;;;;;;;;;;4988596;28;20518;-70
2022/01/13 06:38:01;;;;;;;24.50;11.85;;;;;;;;;;4987389;28;20440;-70
2022/01/13 06:40:27;;;;;;;24.27;10.73;;;;;;;;;;4955192;28;20436;-70
2022/01/13 06:42:52;;;;;;;25.65;10.85;;;;;;;;;;4988885;28;20440;-71
2022/01/13 06:45:18;;;;;;;18.92;9.07;;;;;;;;;;4989140;28;20452;-70
2022/01/13 06:47:43;;;;;;;20.83;9.57;;;;;;;;;;4988531;28;20349;-70
2022/01/13 06:50:09;;;;;;;17.30;8.90;;;;;;;;;;4971257;28;20029;-71
2022/01/13 06:52:35;;;;;;;22.55;9.63;;;;;;;;;;4970864;28;20108;-71
2022/01/13 06:55:00;;;;;;;23.15;10.35;;;;;;;;;;4988695;28;20466;-70
2022/01/13 06:57:26;;;;;;;22.75;10.02;;;;;;;;;;4988962;28;20443;-71
2022/01/13 06:59:51;;;;;;;21.95;8.60;;;;;;;;;;4988533;28;20571;-71
2022/01/13 07:02:16;;;;;;;18.52;9.05;;;;;;;;;;4988131;28;20440;-71
2022/01/13 07:04:43;;;;;;;21.58;9.35;;;;;;;;;;4970746;28;20333;-70
2022/01/13 07:07:09;;;;;;;20.65;9.07;;;;;;;;;;4988678;28;20412;-70
2022/01/13 07:09:34;;;;;;;21.02;9.18;;;;;;;;;;4970909;28;20414;-71
2022/01/13 07:12:00;;;;;;;21.85;9.30;;;;;;;;;;4970615;28;20076;-71
2022/01/13 07:14:25;;;;;;;23.25;9.38;;;;;;;;;;4989622;28;20455;-71
2022/01/13 07:16:50;;;;;;;25.75;9.40;;;;;;;;;;4972217;28;20436;-71
2022/01/13 07:19:17;;;;;;;20.95;9.02;;;;;;;;;;4974551;28;20393;-71
2022/01/13 07:21:44;;;;;;;19.30;9.68;;;;;;;;;;4992208;28;20053;-71
2022/01/13 07:24:10;;;;;;;15.95;7.57;;;;;;;;;;4974792;28;20447;-71
2022/01/13 07:26:35;;;;;;;16.58;8.13;;;;;;;;;;4974566;28;20394;-70
2022/01/13 07:29:00;;;;;;;21.30;8.32;;;;;;;;;;4991971;28;20316;-70
2022/01/13 07:31:28;;;;;;;24.40;8.18;;;;;;;;;;4992129;28;20029;-71
2022/01/13 07:33:53;;;;;;;24.17;9.02;;;;;;;;;;4991921;28;20025;-71
2022/01/13 07:36:19;;;;;;;19.98;8.70;;;;;;;;;;4974198;28;20486;-71
2022/01/13 07:38:44;;;;;;;20.08;9.32;;;;;;;;;;4991917;28;20412;-70
2022/01/13 07:41:09;;;;;;;17.73;7.93;;;;;;;;;;4991946;28;20462;-72
2022/01/13 07:43:35;;;;;;;23.40;9.20;;;;;;;;;;4992441;28;20414;-71
2022/01/13 07:46:00;;;;;;;19.67;8.38;;;;;;;;;;4957244;28;20459;-71
2022/01/13 07:48:26;;;;;;;19.30;9.27;;;;;;;;;;4990455;28;20325;-70
2022/01/13 07:50:52;;;;;;;21.77;9.02;;;;;;;;;;4993074;28;20336;-71
2022/01/13 07:53:17;;;;;;;25.05;9.40;;;;;;;;;;4973574;28;20443;-70
2022/01/13 07:55:42;;;;;;;18.23;9.23;;;;;;;;;;4974485;28;20336;-71
2022/01/13 07:58:08;;;;;;;16.90;10.05;;;;;;;;;;4974287;28;20431;-71
2022/01/13 08:00:34;;;;;;;24.05;10.15;;;;;;;;;;4973004;28;20506;-71
2022/01/13 08:02:59;;;;;;;24.67;9.88;;;;;;;;;;4974002;28;20440;-71
2022/01/13 08:05:24;;;;;;;22.58;10.38;;;;;;;;;;4991448;28;20495;-70
2022/01/13 08:07:50;;;;;;;25.77;10.18;;;;;;;;;;4974128;28;20386;-71
2022/01/13 08:10:15;;;;;;;23.20;9.55;;;;;;;;;;4991054;28;20467;-71
2022/01/13 08:12:41;;;;;;;27.67;10.43;;;;;;;;;;4974055;28;20507;-71
2022/01/13 08:15:09;;;;;;;20.35;9.40;;;;;;;;;;4972948;28;20348;-71
2022/01/13 08:20:19;;;;;;;22.52;9.80;;;;;;;;;;4991761;28;20487;-71
2022/01/13 08:22:44;;;;;;;23.17;10.70;;;;;;;;;;4991558;28;20483;-70
2022/01/13 08:25:10;;;;;;;23.58;10.57;;;;;;;;;;4991118;28;20505;-71
2022/01/13 08:27:35;;;;;;;24.67;10.25;;;;;;;;;;4973048;28;20505;-71
2022/01/13 08:30:01;;;;;;;21.27;10.27;;;;;;;;;;4990215;28;20028;-71
2022/01/13 08:32:26;;;;;;;27.80;12.07;;;;;;;;;;4990238;28;20446;-70
2022/01/13 08:34:51;;;;;;;25.23;11.57;;;;;;;;;;4989251;28;20060;-71
2022/01/13 08:37:17;;;;;;;23.58;10.10;;;;;;;;;;4972969;28;20444;-71
2022/01/13 08:39:45;;;;;;;24.00;11.70;;;;;;;;;;4989112;28;20503;-71
2022/01/13 08:42:13;;;;;;;28.20;12.63;;;;;;;;;;4990585;28;20529;-71
2022/01/13 08:44:39;;;;;;;31.03;12.10;;;;;;;;;;4990825;28;20450;-71
2022/01/13 08:47:05;;;;;;;29.67;12.52;;;;;;;;;;4972953;28;20703;-71
2022/01/13 08:49:30;;;;;;;24.60;11.73;;;;;;;;;;4972734;28;20342;-71
2022/01/13 08:51:56;;;;;;;32.83;14.70;;;;;;;;;;4972491;28;20322;-71
2022/01/13 08:54:22;;;;;;;28.92;11.80;;;;;;;;;;4989128;28;20316;-71
2022/01/13 08:56:48;;;;;;;25.40;11.43;;;;;;;;;;4988898;28;20348;-71
2022/01/13 08:59:13;;;;;;;25.38;12.13;;;;;;;;;;4972633;28;20320;-71
2022/01/13 09:01:38;;;;;;;30.67;13.18;;;;;;;;;;4972397;28;20373;-71
2022/01/13 09:04:04;;;;;;;26.08;11.68;;;;;;;;;;4990293;28;20325;-71
2022/01/13 09:06:31;;;;;;;26.40;11.52;;;;;;;;;;4971925;28;20044;-71
2022/01/13 09:08:57;;;;;;;31.80;12.40;;;;;;;;;;4990031;28;20047;-71
2022/01/13 09:11:22;;;;;;;32.53;12.05;;;;;;;;;;4989854;28;20348;-71
2022/01/13 09:13:55;;;;;;;30.90;11.98;;;;;;;;;;4989534;28;20349;-72
2022/01/13 09:16:21;;;;;;;26.95;12.38;;;;;;;;;;4989687;28;20367;-71
2022/01/13 09:21:13;;;;;;;24.67;11.18;;;;;;;;;;4971548;28;20510;-71
2022/01/13 09:23:38;;;;;;;29.65;12.80;;;;;;;;;;4988482;28;20329;-71
2022/01/13 09:26:04;;;;;;;25.33;11.73;;;;;;;;;;4971770;28;20347;-71
2022/01/13 09:28:30;;;;;;;23.58;11.57;;;;;;;;;;4989386;28;20432;-71
2022/01/13 09:30:55;;;;;;;29.67;13.65;;;;;;;;;;4989854;28;20107;-71
2022/01/13 09:33:21;;;;;;;26.92;11.80;;;;;;;;;;4987892;28;20360;-72
2022/01/13 09:35:47;;;;;;;26.55;12.30;;;;;;;;;;4989994;28;20352;-71
2022/01/13 09:38:13;;;;;;;26.55;11.55;;;;;;;;;;4988859;28;20368;-71
2022/01/13 09:40:41;;;;;;;23.13;11.82;;;;;;;;;;4990638;28;20423;-71
2022/01/13 09:43:06;;;;;;;23.25;10.60;;;;;;;;;;4971833;28;20378;-71
2022/01/13 09:45:32;;;;;;;24.70;12.45;;;;;;;;;;4971120;28;20356;-71
2022/01/13 09:47:57;;;;;;;20.42;10.48;;;;;;;;;;4990911;28;20108;-71
2022/01/13 09:50:22;;;;;;;26.13;11.60;;;;;;;;;;4989052;28;20455;-72
2022/01/13 09:52:48;;;;;;;25.80;10.98;;;;;;;;;;4988951;28;20131;-71
2022/01/13 09:55:15;;;;;;;24.40;10.27;;;;;;;;;;4987854;28;20582;-71
2022/01/13 09:57:43;;;;;;;21.23;10.27;;;;;;;;;;4988737;28;20531;-71
2022/01/13 10:00:09;;;;;;;23.88;10.95;;;;;;;;;;4971587;28;20505;-71
2022/01/13 10:02:34;;;;;;;21.50;10.40;;;;;;;;;;4970700;28;20048;-71
2022/01/13 10:05:02;;;;;;;24.98;11.20;;;;;;;;;;4988959;28;20475;-71
2022/01/13 10:07:32;;;;;;;30.92;11.35;;;;;;;;;;4988748;28;20332;-71
2022/01/13 10:10:00;;;;;;;26.17;11.27;;;;;;;;;;4971402;28;20421;-71
2022/01/13 10:12:36;;;;;;;24.17;10.07;;;;;;;;;;4988950;28;20317;-71
2022/01/13 10:17:30;;;;;;;23.42;10.23;;;;;;;;;;4989805;28;20037;-71
2022/01/13 10:19:58;;;;;;;23.35;12.45;;;;;;;;;;4989277;28;21301;-71
2022/01/13 10:22:31;;;;;;;22.77;10.77;;;;;;;;;;4987219;28;20796;-71
2022/01/13 10:24:58;;;;;;;25.23;11.20;;;;;;;;;;4971120;28;20347;-72
2022/01/13 10:27:32;;;;;;;26.00;11.20;;;;;;;;;;4988769;28;20340;-71
2022/01/13 10:30:05;;;;;;;23.13;11.52;;;;;;;;;;4971141;28;20083;-71
2022/01/13 10:32:37;;;;;;;21.83;9.75;;;;;;;;;;4988658;28;20504;-71
2022/01/13 10:35:05;;;;;;;18.42;9.63;;;;;;;;;;4971371;28;20465;-71
2022/01/13 10:37:33;;;;;;;20.70;9.20;;;;;;;;;;4970615;28;20341;-71
2022/01/13 10:40:10;;;;;;;26.23;11.57;;;;;;;;;;4989293;28;20823;-71
2022/01/13 10:45:17;;;;;;;22.25;9.68;;;;;;;;;;4988412;28;20336;-71
2022/01/13 10:47:50;;;;;;;25.67;11.40;;;;;;;;;;4990180;28;20327;-71
2022/01/13 10:50:15;;;;;;;28.45;11.25;;;;;;;;;;4970969;28;20456;-71
2022/01/13 10:52:41;;;;;;;26.83;11.18;;;;;;;;;;4990391;28;20459;-71
2022/01/13 10:55:07;;;;;;;27.48;10.73;;;;;;;;;;4993517;28;20182;-71
2022/01/13 10:57:34;;;;;;;26.40;11.10;;;;;;;;;;4991526;28;20566;-71
2022/01/13 11:00:00;;;;;;;24.95;11.40;;;;;;;;;;4974323;28;20043;-71
2022/01/13 11:02:26;;;;;;;23.92;11.77;;;;;;;;;;4990079;28;20045;-71
2022/01/13 11:04:51;;;;;;;23.48;9.82;;;;;;;;;;4974477;28;20559;-72
2022/01/13 11:07:22;;;;;;;25.40;11.95;;;;;;;;;;4992303;28;20460;-71
2022/01/13 11:10:07;;;;;;;35.75;12.30;;;;;;;;;;4991592;28;20355;-71
2022/01/13 11:12:38;;;;;;;23.15;10.20;;;;;;;;;;4973917;28;20051;-71
2022/01/13 11:15:08;;;;;;;23.55;10.73;;;;;;;;;;4993551;28;20061;-71
2022/01/13 11:17:38;;;;;;;29.70;11.57;;;;;;;;;;4990467;28;20424;-71
2022/01/13 11:20:04;;;;;;;;;;;;;;;;;;4974886;28;20432;-71
2022/01/13 11:22:29;;;;;;;28.77;11.13;;;;;;;;;;4991875;28;19913;-70
2022/01/13 11:24:55;;;;;;;28.65;11.55;;;;;;;;;;4992226;28;20424;-71
2022/01/13 11:27:21;;;;;;;26.98;12.85;;;;;;;;;;4973921;28;20312;-71
2022/01/13 11:29:47;;;;;;;27.38;10.20;;;;;;;;;;4991558;28;20364;-71
2022/01/13 11:32:16;;;;;;;23.33;10.20;;;;;;;;;;4990355;28;20414;-71
2022/01/13 11:34:42;;;;;;;31.63;11.35;;;;;;;;;;4990127;28;20432;-71
2022/01/13 11:37:07;;;;;;;33.05;11.45;;;;;;;;;;4975199;28;20366;-72
2022/01/13 11:39:43;;;;;;;25.35;10.90;;;;;;;;;;4990137;28;20349;-71
2022/01/13 11:42:10;;;;;;;23.63;11.35;;;;;;;;;;4991676;28;20431;-71
2022/01/13 11:44:36;;;;;;;29.33;10.38;;;;;;;;;;4974292;28;20328;-73
2022/01/13 11:47:08;;;;;;;25.77;11.35;;;;;;;;;;4973186;28;20454;-71
2022/01/13 11:52:15;;;;;;;25.95;10.68;;;;;;;;;;4974132;28;20432;-71
2022/01/13 11:54:41;;;;;;;31.25;12.63;;;;;;;;;;4991473;28;20517;-71
2022/01/13 11:57:10;;;;;;;29.15;10.90;;;;;;;;;;4992445;28;20025;-71
2022/01/13 11:59:36;;;;;;;25.38;12.15;;;;;;;;;;4991398;28;20047;-71
2022/01/13 12:02:31;;;;;;;24.10;12.05;;;;;;;;;;4973824;28;20049;-71
2022/01/13 12:05:00;;;;;;;21.45;11.10;;;;;;;;;;4973289;28;20108;-70
2022/01/13 12:07:34;;;;;;;;;;;;;;;;;;4991544;28;20511;-71
2022/01/13 12:10:00;;;;;;;23.20;10.20;;;;;;;;;;4991092;28;19912;-71
2022/01/13 12:12:31;;;;;;;25.77;11.52;;;;;;;;;;4990664;28;20079;-71
2022/01/13 12:15:18;;;;;;;27.25;11.93;;;;;;;;;;4973205;28;20033;-71
2022/01/13 12:17:47;;;;;;;18.88;10.85;;;;;;;;;;4991759;28;20167;-72
2022/01/13 12:23:16;;;;;;;21.98;11.65;;;;;;;;;;4973535;28;20357;-72
2022/01/13 12:25:42;;;;;;;25.67;11.63;;;;;;;;;;4974697;28;20402;-71
2022/01/13 12:28:17;;;;;;;23.92;10.35;;;;;;;;;;4989519;28;20481;-71
2022/01/13 12:30:43;;;;;;;21.35;10.00;;;;;;;;;;4973363;28;20436;-71
2022/01/13 12:33:09;;;;;;;25.75;10.25;;;;;;;;;;4972902;28;20340;-71
2022/01/13 12:35:34;;;;;;;27.02;11.40;;;;;;;;;;4973108;28;20447;-71
2022/01/13 12:38:00;;;;;;;24.77;10.70;;;;;;;;;;4990977;28;20107;-71
2022/01/13 12:40:26;;;;;;;24.38;10.43;;;;;;;;;;4990142;28;20025;-71
2022/01/13 12:42:53;;;;;;;22.55;9.38;;;;;;;;;;4972649;28;20505;-71
2022/01/13 12:45:29;;;;;;;21.02;10.52;;;;;;;;;;4972254;28;20446;-71
2022/01/13 12:48:08;;;;;;;27.75;10.93;;;;;;;;;;4990143;28;20047;-70
2022/01/13 12:50:35;;;;;;;24.13;10.75;;;;;;;;;;4972573;28;20359;-72
2022/01/13 12:53:19;;;;;;;24.08;11.45;;;;;;;;;;4972140;28;20166;-71
2022/01/13 12:56:10;;;;;;;25.27;10.98;;;;;;;;;;4957677;28;20340;-71
2022/01/13 12:58:42;;;;;;;21.65;10.52;;;;;;;;;;4979537;28;20465;-71
2022/01/13 13:01:17;;;;;;;22.95;10.88;;;;;;;;;;4972081;28;20068;-71
2022/01/13 13:03:42;;;;;;;23.80;11.77;;;;;;;;;;4972593;28;20424;-71
2022/01/13 13:06:16;;;;;;;29.63;11.55;;;;;;;;;;4972214;28;20420;-71
2022/01/13 13:08:46;;;;;;;31.90;12.07;;;;;;;;;;4990271;28;20430;-71
2022/01/13 13:11:14;;;;;;;22.63;9.90;;;;;;;;;;4971625;28;20428;-71
2022/01/13 13:13:46;;;;;;;26.92;11.30;;;;;;;;;;4989615;28;20448;-70
2022/01/13 13:16:12;;;;;;;23.58;11.27;;;;;;;;;;4990491;28;20339;-71
2022/01/13 13:18:37;;;;;;;27.05;11.68;;;;;;;;;;4972008;28;20432;-71
2022/01/13 13:21:04;;;;;;;28.15;11.85;;;;;;;;;;4971736;28;20466;-71
2022/01/13 13:23:32;;;;;;;26.00;11.00;;;;;;;;;;4973062;28;20482;-71
2022/01/13 13:26:08;;;;;;;26.58;11.98;;;;;;;;;;4989370;28;20472;-71
2022/01/13 13:28:43;;;;;;;26.58;11.82;;;;;;;;;;4990158;28;20395;-71
2022/01/13 13:31:20;;;;;;;22.45;11.30;;;;;;;;;;4971796;28;20029;-71
2022/01/13 13:33:48;;;;;;;22.35;11.40;;;;;;;;;;4971998;28;20382;-70
2022/01/13 13:36:19;;;;;;;28.48;12.38;;;;;;;;;;4990066;28;20123;-71
2022/01/13 13:39:06;;;;;;;26.67;10.98;;;;;;;;;;4989175;28;20028;-70
2022/01/13 13:41:35;;;;;;;28.20;11.25;;;;;;;;;;4978806;28;20321;-71
2022/01/13 13:44:00;;;;;;;24.25;11.68;;;;;;;;;;4971380;28;20348;-70
2022/01/13 13:46:26;;;;;;;25.73;11.07;;;;;;;;;;4971493;28;20328;-70
2022/01/13 13:48:52;;;;;;;28.02;11.52;;;;;;;;;;4989019;28;20452;-71
2022/01/13 13:51:20;;;;;;;28.52;11.20;;;;;;;;;;4989265;28;20474;-72
2022/01/13 13:54:05;;;;;;;26.63;11.45;;;;;;;;;;4955779;28;20408;-72
2022/01/13 13:56:30;;;;;;;22.40;10.50;;;;;;;;;;4971231;28;20431;-71
2022/01/13 13:58:56;;;;;;;27.30;11.63;;;;;;;;;;4970990;28;20328;-71
2022/01/13 14:01:23;;;;;;;28.42;11.48;;;;;;;;;;4970710;28;20100;-70
2022/01/13 14:03:48;;;;;;;29.70;10.43;;;;;;;;;;4989612;28;20522;-71
2022/01/13 14:06:37;;;;;;;24.42;10.90;;;;;;;;;;4987347;28;20459;-71
2022/01/13 14:09:02;;;;;;;28.45;10.90;;;;;;;;;;4971189;28;20352;-71
2022/01/13 14:11:27;;;;;;;19.58;9.60;;;;;;;;;;4987287;28;20056;-71
2022/01/13 14:14:08;;;;;;;30.45;12.73;;;;;;;;;;4989070;28;20319;-70
2022/01/13 14:16:34;;;;;;;24.52;10.95;;;;;;;;;;4988559;28;20432;-70
2022/01/13 14:19:05;;;;;;;27.77;11.70;;;;;;;;;;4988713;28;20450;-71
2022/01/13 14:21:44;;;;;;;30.38;11.98;;;;;;;;;;4972123;28;20471;-70
2022/01/13 14:24:10;;;;;;;26.25;11.38;;;;;;;;;;4970657;28;20321;-71
2022/01/13 14:26:35;;;;;;;28.42;12.15;;;;;;;;;;4988297;28;20399;-71
2022/01/13 14:29:00;;;;;;;22.52;10.40;;;;;;;;;;4987131;28;20462;-71
2022/01/13 14:31:34;;;;;;;27.27;11.48;;;;;;;;;;4988458;28;20344;-70
2022/01/13 14:33:59;;;;;;;27.00;11.13;;;;;;;;;;4988996;28;20021;-71
2022/01/13 14:36:26;;;;;;;28.98;11.20;;;;;;;;;;4988942;28;20048;-71
2022/01/13 14:39:03;;;;;;;27.58;10.88;;;;;;;;;;4971224;28;20395;-72
2022/01/13 14:41:35;;;;;;;26.20;11.93;;;;;;;;;;4970834;28;20128;-70
2022/01/13 14:44:13;;;;;;;24.77;11.57;;;;;;;;;;4986844;28;20442;-71
2022/01/13 14:46:44;;;;;;;24.80;12.45;;;;;;;;;;4989911;28;20424;-71
2022/01/13 14:49:10;;;;;;;31.63;13.30;;;;;;;;;;4970670;28;20024;-71
2022/01/13 14:51:38;;;;;;;24.27;11.05;;;;;;;;;;4988257;28;20470;-70
2022/01/13 14:54:05;;;;;;;29.90;12.13;;;;;;;;;;4970547;28;20059;-72
2022/01/13 14:56:31;;;;;;;23.27;11.32;;;;;;;;;;4970205;28;20490;-71
2022/01/13 14:58:57;;;;;;;29.98;12.05;;;;;;;;;;4971244;28;20340;-71